createdAt,value
2018-07-20T00:02:30.359Z,42.60
2018-07-20T00:05:05.229Z,42.70
2018-07-20T00:07:38.894Z,42.70
2018-07-20T00:10:13.083Z,42.90
2018-07-20T00:12:41.734Z,42.90
2018-07-20T00:15:11.792Z,42.90
2018-07-20T00:17:41.430Z,42.90
2018-07-20T00:20:12.447Z,43.00
2018-07-20T00:22:41.431Z,43.00
2018-07-20T00:25:11.057Z,43.00
2018-07-20T00:27:44.159Z,43.70
2018-07-20T00:30:12.985Z,43.10
2018-07-20T00:32:53.324Z,43.30
2018-07-20T00:35:30.915Z,43.40
2018-07-20T00:38:05.213Z,43.50
2018-07-20T00:40:33.921Z,43.80
2018-07-20T00:43:02.535Z,43.80
2018-07-20T00:45:32.298Z,43.90
2018-07-20T00:48:02.069Z,44.00
2018-07-20T00:50:32.644Z,44.10
2018-07-20T00:53:03.142Z,44.20
2018-07-20T00:55:33.181Z,44.30
2018-07-20T00:58:03.698Z,44.20
2018-07-20T01:00:33.417Z,44.30
2018-07-20T01:05:33.562Z,44.70
2018-07-20T01:08:04.334Z,45.40
2018-07-20T01:10:34.258Z,45.10
2018-07-20T01:13:04.715Z,45.10
2018-07-20T01:15:36.749Z,45.20
2018-07-20T01:18:07.580Z,45.70
2018-07-20T01:20:37.176Z,45.30
2018-07-20T01:23:06.766Z,45.40
2018-07-20T01:25:35.873Z,46.20
2018-07-20T01:30:33.503Z,46.60
2018-07-20T01:33:02.054Z,47.00
2018-07-20T01:35:30.672Z,46.80
2018-07-20T01:38:00.287Z,46.40
2018-07-20T01:40:29.728Z,46.70
2018-07-20T01:42:58.608Z,46.70
2018-07-20T01:45:28.194Z,46.60
2018-07-20T01:47:57.525Z,46.60
2018-07-20T01:50:27.269Z,46.70
2018-07-20T01:52:55.871Z,46.80
2018-07-20T01:55:24.462Z,47.00
2018-07-20T01:57:53.020Z,47.10
2018-07-20T02:00:23.474Z,47.10
2018-07-20T02:02:53.013Z,47.30
2018-07-20T02:05:21.593Z,47.20
2018-07-20T02:07:51.041Z,47.50
2018-07-20T02:10:20.516Z,47.80
2018-07-20T02:12:49.412Z,48.50
2018-07-20T02:15:17.953Z,48.40
2018-07-20T02:20:14.670Z,49.10
2018-07-20T02:22:43.210Z,49.80
2018-07-20T02:25:11.788Z,50.20
2018-07-20T02:27:40.377Z,50.40
2018-07-20T02:30:08.915Z,50.40
2018-07-20T02:32:37.383Z,50.00
2018-07-20T02:35:06.044Z,51.10
2018-07-20T02:37:34.680Z,51.00
2018-07-20T02:40:03.206Z,51.70
2018-07-20T02:42:31.771Z,51.50
2018-07-20T02:45:00.421Z,51.90
2018-07-20T02:47:29.112Z,52.20
2018-07-20T02:49:57.679Z,52.60
2018-07-20T02:52:26.156Z,52.60
2018-07-20T02:54:54.673Z,52.30
2018-07-20T02:57:23.222Z,52.30
2018-07-20T02:59:51.752Z,52.30
2018-07-20T03:02:20.305Z,52.40
2018-07-20T03:04:48.829Z,52.40
2018-07-20T03:07:17.486Z,52.30
2018-07-20T03:09:46.102Z,52.20
2018-07-20T03:12:15.432Z,52.00
2018-07-20T03:14:43.997Z,51.90
2018-07-20T03:17:13.224Z,51.80
2018-07-20T03:19:41.744Z,51.60
2018-07-20T03:22:10.392Z,51.60
2018-07-20T03:24:38.987Z,51.50
2018-07-20T03:29:35.664Z,51.50
2018-07-20T03:32:04.374Z,52.00
2018-07-20T03:34:32.933Z,52.40
2018-07-20T03:37:01.427Z,52.50
2018-07-20T03:39:29.972Z,52.00
2018-07-20T03:42:01.239Z,52.20
2018-07-20T03:44:31.894Z,52.30
2018-07-20T03:47:00.751Z,52.30
2018-07-20T03:49:30.187Z,51.90
2018-07-20T03:52:00.189Z,51.80
2018-07-20T03:54:28.697Z,51.30
2018-07-20T03:56:57.230Z,51.40
2018-07-20T03:59:25.717Z,51.10
2018-07-20T04:01:54.296Z,51.20
2018-07-20T04:04:22.809Z,51.60
2018-07-20T04:06:53.461Z,51.80
2018-07-20T04:09:22.022Z,51.70
2018-07-20T04:11:50.752Z,51.40
2018-07-20T04:14:19.724Z,51.80
2018-07-20T04:16:48.262Z,51.80
2018-07-20T04:19:17.185Z,52.10
2018-07-20T04:21:46.774Z,52.50
2018-07-20T04:24:15.436Z,52.50
2018-07-20T04:26:43.978Z,52.20
2018-07-20T04:29:12.497Z,52.10
2018-07-20T04:31:41.018Z,51.90
2018-07-20T04:34:09.736Z,51.70
2018-07-20T04:36:38.210Z,51.30
2018-07-20T04:39:11.959Z,51.10
2018-07-20T04:41:41.568Z,50.90
2018-07-20T04:44:11.167Z,50.50
2018-07-20T04:46:40.342Z,50.80
2018-07-20T04:49:08.854Z,50.90
2018-07-20T04:51:38.218Z,51.50
2018-07-20T04:54:07.532Z,51.60
2018-07-20T04:56:36.722Z,51.90
2018-07-20T04:59:05.994Z,52.20
2018-07-20T05:01:34.784Z,52.10
2018-07-20T05:04:04.272Z,52.30
2018-07-20T05:06:33.490Z,52.20
2018-07-20T05:09:02.285Z,51.90
2018-07-20T05:11:30.860Z,52.00
2018-07-20T05:13:59.397Z,52.00
2018-07-20T05:16:28.069Z,51.80
2018-07-20T05:18:56.546Z,51.50
2018-07-20T05:21:25.059Z,51.60
2018-07-20T05:23:53.630Z,52.10
2018-07-20T05:26:22.155Z,52.50
2018-07-20T05:28:50.719Z,52.30
2018-07-20T05:31:20.160Z,52.70
2018-07-20T05:33:49.168Z,52.90
2018-07-20T05:36:17.878Z,52.60
2018-07-20T05:38:47.376Z,52.50
2018-07-20T05:41:16.945Z,52.70
2018-07-20T05:43:46.787Z,52.60
2018-07-20T05:46:16.056Z,52.00
2018-07-20T05:51:17.074Z,51.40
2018-07-20T05:53:45.632Z,51.10
2018-07-20T05:56:24.756Z,51.00
2018-07-20T05:59:21.152Z,50.80
2018-07-20T06:01:55.286Z,49.90
2018-07-20T06:07:37.935Z,45.20
2018-07-20T06:13:00.579Z,40.00
2018-07-20T06:15:30.607Z,37.70
2018-07-20T06:18:02.205Z,35.90
2018-07-20T06:20:34.230Z,35.10
2018-07-20T06:23:15.504Z,32.50
2018-07-20T06:37:42.215Z,30.80
2018-07-20T06:40:22.065Z,30.20
2018-07-20T06:42:59.151Z,29.50
2018-07-20T06:45:35.866Z,29.40
2018-07-20T06:48:06.505Z,29.20
2018-07-20T06:50:36.513Z,28.80
2018-07-20T06:55:34.680Z,28.90
2018-07-20T06:58:05.655Z,28.80
2018-07-20T07:03:06.996Z,29.20
2018-07-20T07:05:36.519Z,29.60
2018-07-20T07:08:05.149Z,30.20
2018-07-20T07:10:33.934Z,30.90
2018-07-20T07:13:02.453Z,32.20
2018-07-20T07:15:31.037Z,33.60
2018-07-20T07:18:01.029Z,34.70
2018-07-20T07:20:29.571Z,36.30
2018-07-20T07:22:58.135Z,37.00
2018-07-20T07:25:26.768Z,37.40
2018-07-20T07:27:58.719Z,38.10
2018-07-20T07:30:33.453Z,38.40
2018-07-20T07:33:05.949Z,38.80
2018-07-20T07:35:35.621Z,39.20
2018-07-20T07:38:06.242Z,39.50
2018-07-20T07:40:37.873Z,39.60
2018-07-20T07:43:07.631Z,40.10
2018-07-20T07:45:36.949Z,40.50
2018-07-20T07:48:05.512Z,40.90
2018-07-20T07:50:36.429Z,40.70
2018-07-20T07:53:07.891Z,40.90
2018-07-20T07:55:38.590Z,40.90
2018-07-20T07:58:09.623Z,40.50
2018-07-20T08:00:39.383Z,40.30
2018-07-20T08:03:13.285Z,40.20
2018-07-20T08:05:48.409Z,40.80
2018-07-20T08:08:20.075Z,41.10
2018-07-20T08:10:49.047Z,41.50
2018-07-20T08:13:17.546Z,41.50
2018-07-20T08:18:15.043Z,41.30
2018-07-20T08:20:43.575Z,41.10
2018-07-20T08:23:12.743Z,41.40
2018-07-20T08:25:41.354Z,41.50
2018-07-20T08:28:09.851Z,42.00
2018-07-20T08:30:38.355Z,41.70
2018-07-20T08:33:07.418Z,41.90
2018-07-20T08:38:05.063Z,41.70
2018-07-20T08:40:39.201Z,41.70
2018-07-20T08:43:07.679Z,41.50
2018-07-20T08:45:37.104Z,40.90
2018-07-20T08:48:05.707Z,40.10
2018-07-20T08:50:34.267Z,39.70
2018-07-20T08:55:35.778Z,39.30
2018-07-20T08:58:07.683Z,39.80
2018-07-20T09:00:42.036Z,40.30
2018-07-20T09:03:16.392Z,40.60
2018-07-20T09:05:48.532Z,40.70
2018-07-20T09:08:20.673Z,40.20
2018-07-20T09:10:51.863Z,39.70
2018-07-20T09:13:25.840Z,39.50
2018-07-20T09:15:59.172Z,39.30
2018-07-20T09:18:28.801Z,39.00
2018-07-20T09:20:57.302Z,38.50
2018-07-20T09:23:25.780Z,38.60
2018-07-20T09:28:23.581Z,38.00
2018-07-20T09:30:59.860Z,37.80
2018-07-20T09:39:38.029Z,36.80
2018-07-20T09:42:06.634Z,37.00
2018-07-20T09:44:35.158Z,37.00
2018-07-20T09:50:27.207Z,37.00
2018-07-20T09:53:02.403Z,37.00
2018-07-20T10:05:19.506Z,37.00
2018-07-20T10:20:54.961Z,38.10
2018-07-20T10:48:25.105Z,33.70
2018-07-20T12:53:37.042Z,32.40
2018-07-20T13:02:38.523Z,30.80
2018-07-20T13:08:03.589Z,30.60
2018-07-20T13:43:49.088Z,30.70
2018-07-20T14:00:14.329Z,28.90
2018-07-20T14:03:00.587Z,28.30
2018-07-20T14:05:56.436Z,28.30
2018-07-20T14:25:34.578Z,28.50
2018-07-20T15:56:08.176Z,30.30
2018-07-20T16:01:23.580Z,29.50
2018-07-20T16:04:04.524Z,29.20
2018-07-20T16:06:33.070Z,28.90
2018-07-20T16:09:13.582Z,28.90
2018-07-20T16:26:58.543Z,28.80
2018-07-20T16:29:34.551Z,30.10
2018-07-20T16:32:03.433Z,29.90
2018-07-20T16:34:32.075Z,29.70
2018-07-20T16:39:28.958Z,29.40
2018-07-20T16:41:57.523Z,29.30
2018-07-20T16:44:26.096Z,29.20
2018-07-20T16:49:24.063Z,29.50
2018-07-20T16:51:52.616Z,29.10
2018-07-20T16:54:21.212Z,29.10
2018-07-20T16:56:49.806Z,29.30
2018-07-20T16:59:18.331Z,29.10
2018-07-20T17:01:46.916Z,29.20
2018-07-20T17:04:15.446Z,29.00
2018-07-20T17:06:43.976Z,29.10
2018-07-20T17:09:13.010Z,29.20
2018-07-20T17:11:41.862Z,29.10
2018-07-20T17:14:10.394Z,29.10
2018-07-20T17:16:38.965Z,29.30
2018-07-20T17:19:07.544Z,29.30
2018-07-20T17:21:36.120Z,29.30
2018-07-20T17:24:11.332Z,29.40
2018-07-20T17:26:39.872Z,29.40
2018-07-20T17:29:11.735Z,29.70
2018-07-20T17:34:15.754Z,29.50
2018-07-20T17:36:50.155Z,29.30
2018-07-20T17:39:18.829Z,28.90
2018-07-20T17:41:47.401Z,28.40
2018-07-20T17:44:17.066Z,28.10
2018-07-20T17:46:45.653Z,27.80
2018-07-20T17:56:42.058Z,28.40
2018-07-20T17:59:31.103Z,29.60
2018-07-20T18:02:16.964Z,30.20
2018-07-20T18:04:53.998Z,31.60
2018-07-20T18:07:30.292Z,33.00
2018-07-20T18:10:04.497Z,33.60
2018-07-20T18:12:35.784Z,34.80
2018-07-20T18:15:06.321Z,35.40
2018-07-20T18:17:35.584Z,36.00
2018-07-20T18:20:04.408Z,37.20
2018-07-20T18:22:33.093Z,36.90
2018-07-20T18:27:29.939Z,37.70
2018-07-20T18:29:59.088Z,38.20
2018-07-20T18:32:27.710Z,39.50
2018-07-20T18:37:26.521Z,39.20
2018-07-20T18:39:55.238Z,38.50
2018-07-20T18:45:22.683Z,37.60
2018-07-20T18:48:08.086Z,38.30
2018-07-20T18:53:13.152Z,36.60
2018-07-20T18:55:44.472Z,35.60
2018-07-20T18:58:14.554Z,36.30
2018-07-20T19:00:43.177Z,36.20
2018-07-20T19:03:11.794Z,37.00
2018-07-20T19:05:40.415Z,36.70
2018-07-20T19:08:09.002Z,37.30
2018-07-20T19:13:08.253Z,37.30
2018-07-20T19:15:38.571Z,37.40
2018-07-20T19:18:07.628Z,37.70
2018-07-20T19:20:38.964Z,37.50
2018-07-20T19:23:08.131Z,37.70
2018-07-20T19:25:36.899Z,37.70
2018-07-20T19:28:05.528Z,37.30
2018-07-20T19:30:34.887Z,37.20
2018-07-20T19:33:04.890Z,37.60
2018-07-20T19:35:34.043Z,38.00
2018-07-20T19:39:00.850Z,37.50
2018-07-20T19:41:29.461Z,37.40
2018-07-20T19:43:58.076Z,37.60
2018-07-20T19:48:55.903Z,37.00
2018-07-20T19:51:24.742Z,37.40
2018-07-20T19:53:53.308Z,38.70
2018-07-20T19:56:21.912Z,37.90
2018-07-20T19:59:06.493Z,38.00
2018-07-20T20:01:35.138Z,38.00
2018-07-20T20:06:42.095Z,36.50
2018-07-20T20:09:12.288Z,37.10
2018-07-20T20:11:41.375Z,36.80
2018-07-20T20:14:10.651Z,38.10
2018-07-20T20:16:39.525Z,39.50
2018-07-20T20:19:09.387Z,40.00
2018-07-20T20:24:06.564Z,40.90
2018-07-20T20:26:35.249Z,40.90
2018-07-20T20:29:07.425Z,40.70
2018-07-20T20:31:36.193Z,40.40
2018-07-20T20:34:04.837Z,40.70
2018-07-20T20:39:02.950Z,40.30
2018-07-20T20:44:01.219Z,39.80
2018-07-20T20:46:29.984Z,39.80
2018-07-20T20:48:58.843Z,39.70
2018-07-20T20:51:27.829Z,39.80
2018-07-20T20:53:56.663Z,40.30
2018-07-20T20:56:25.251Z,40.10
2018-07-20T20:58:54.096Z,40.20
2018-07-20T21:01:22.637Z,39.90
2018-07-20T21:03:51.191Z,39.50
2018-07-20T21:06:19.941Z,39.80
2018-07-20T21:08:48.621Z,39.40
2018-07-20T21:11:18.210Z,38.40
2018-07-20T21:19:08.574Z,37.00
2018-07-20T21:21:37.189Z,37.00
2018-07-20T21:24:06.246Z,37.10
2018-07-20T21:26:34.873Z,37.00
2018-07-20T21:29:03.507Z,36.80
2018-07-20T21:31:32.119Z,36.80
2018-07-20T21:34:00.811Z,36.60
2018-07-20T21:36:29.309Z,36.70
2018-07-20T21:38:58.513Z,36.50
2018-07-20T21:41:27.064Z,36.70
2018-07-20T21:43:55.610Z,36.60
2018-07-20T21:46:24.210Z,36.60
2018-07-20T21:48:52.797Z,36.40
2018-07-20T21:51:21.374Z,36.40
2018-07-20T21:53:49.982Z,36.70
2018-07-20T21:56:18.563Z,36.50
2018-07-20T21:58:47.255Z,36.50
2018-07-20T22:01:15.896Z,36.50
2018-07-20T22:03:44.564Z,36.50
2018-07-20T22:11:09.520Z,39.80
2018-07-20T22:13:38.068Z,40.60
2018-07-20T22:16:06.823Z,41.30
2018-07-20T22:18:35.608Z,41.50
2018-07-20T22:21:04.666Z,41.80
2018-07-20T22:23:33.328Z,41.90
2018-07-20T22:28:30.319Z,41.10
2018-07-20T22:30:59.163Z,40.70
2018-07-20T22:33:28.708Z,40.60
2018-07-20T22:35:57.316Z,41.00
2018-07-20T22:38:25.824Z,40.10
2018-07-20T22:40:54.522Z,40.50
2018-07-20T22:43:23.091Z,40.60
2018-07-20T22:45:51.614Z,40.50
2018-07-20T22:48:20.277Z,40.70
2018-07-20T22:50:48.943Z,40.70
2018-07-20T22:53:17.677Z,40.90
2018-07-20T22:55:46.372Z,41.10
2018-07-20T22:58:14.992Z,41.20
2018-07-20T23:00:43.727Z,40.90
2018-07-20T23:03:12.247Z,40.40
2018-07-20T23:05:40.825Z,40.00
2018-07-20T23:08:09.349Z,40.20
2018-07-20T23:13:06.448Z,39.20
2018-07-20T23:15:35.100Z,39.10
2018-07-20T23:20:31.816Z,38.80
2018-07-20T23:23:00.337Z,39.10
2018-07-20T23:25:28.912Z,39.00
2018-07-20T23:30:25.846Z,38.70
2018-07-20T23:32:54.564Z,38.40
2018-07-20T23:37:51.436Z,38.10
2018-07-20T23:40:20.014Z,38.30
2018-07-20T23:42:48.508Z,38.30
2018-07-20T23:45:17.202Z,38.40
2018-07-20T23:47:45.764Z,38.50
2018-07-20T23:50:14.367Z,38.20
2018-07-20T23:52:43.025Z,38.40
2018-07-20T23:55:11.598Z,38.30
